Time;durP1;ratioP1;P1;durP2;ratioP2;P2;SDS_P1;SDS_P2;PMS_P1;PMS_P2;Temp;Humidity;BMP_temperature;BMP_pressure;BME280_temperature;BME280_humidity;BME280_pressure;Samples;Min_cycle;Max_cycle;Signal;HPM_P1;HPM_P2
2023/03/08 00:01:27;;;;;;;;;20.20;20.20;;;;;;;;5251050;28;9541;-69
2023/03/08 00:03:59;;;;;;;;;20.60;19.40;;;;;;;;5267419;28;8913;-69
2023/03/08 00:06:30;;;;;;;;;12.20;12.20;;;;;;;;5251038;28;8814;-71
2023/03/08 00:09:01;;;;;;;;;15.80;15.80;;;;;;;;5234602;28;8790;-71
2023/03/08 00:11:33;;;;;;;;;26.20;24.40;;;;;;;;5233980;28;8794;-72
2023/03/08 00:14:04;;;;;;;;;44.20;43.00;;;;;;;;5269045;28;8779;-72
2023/03/08 00:16:35;;;;;;;;;30.20;29.00;;;;;;;;5223517;28;8781;-71
2023/03/08 00:19:24;;;;;;;;;28.00;26.80;;;;;;;;5248025;28;8911;-72
2023/03/08 00:21:55;;;;;;;;;33.25;30.75;;;;;;;;5229871;28;8979;-70
2023/03/08 00:24:26;;;;;;;;;49.00;43.60;;;;;;;;5213292;28;8836;-70
2023/03/08 00:26:57;;;;;;;;;42.20;38.40;;;;;;;;5213410;28;9547;-70
2023/03/08 00:29:29;;;;;;;;;42.25;40.50;;;;;;;;5212703;28;8768;-69
2023/03/08 00:32:01;;;;;;;;;53.60;45.60;;;;;;;;5212357;28;8874;-69
2023/03/08 00:34:32;;;;;;;;;34.25;31.00;;;;;;;;5250205;28;8840;-68
2023/03/08 00:37:03;;;;;;;;;36.00;33.50;;;;;;;;5232925;28;11273;-69
2023/03/08 00:39:34;;;;;;;;;34.00;31.50;;;;;;;;5247583;28;9152;-69
2023/03/08 00:42:05;;;;;;;;;39.40;38.00;;;;;;;;5247312;28;8804;-69
2023/03/08 00:44:36;;;;;;;;;37.20;34.80;;;;;;;;5229471;28;8797;-69
2023/03/08 00:47:07;;;;;;;;;33.40;32.60;;;;;;;;5229243;28;8888;-69
2023/03/08 00:49:38;;;;;;;;;22.40;22.40;;;;;;;;5229374;28;9537;-69
2023/03/08 00:52:28;;;;;;;;;27.40;27.40;;;;;;;;5216382;28;8792;-69
2023/03/08 00:54:59;;;;;;;;;28.60;28.20;;;;;;;;5231946;28;8813;-69
2023/03/08 00:57:32;;;;;;;;;31.20;29.00;;;;;;;;5233107;28;8878;-69
2023/03/08 01:00:07;;;;;;;;;21.40;21.40;;;;;;;;5217011;28;8855;-69
2023/03/08 01:02:39;;;;;;;;;18.00;16.80;;;;;;;;5212573;28;8773;-68
2023/03/08 01:05:11;;;;;;;;;27.60;27.60;;;;;;;;5229444;28;8766;-68
2023/03/08 01:07:42;;;;;;;;;26.60;26.20;;;;;;;;5228929;28;8814;-70
2023/03/08 01:10:13;;;;;;;;;23.40;22.40;;;;;;;;5246957;28;8770;-68
2023/03/08 01:12:44;;;;;;;;;25.00;24.60;;;;;;;;5229221;28;8905;-68
2023/03/08 01:15:15;;;;;;;;;19.50;16.00;;;;;;;;5212487;28;8931;-68
2023/03/08 01:17:46;;;;;;;;;31.00;31.00;;;;;;;;5246721;28;10194;-69
2023/03/08 01:20:17;;;;;;;;;24.60;23.60;;;;;;;;5228930;28;8834;-68
2023/03/08 01:22:49;;;;;;;;;24.00;23.80;;;;;;;;5246445;28;8819;-68
2023/03/08 01:25:20;;;;;;;;;24.40;24.40;;;;;;;;5228756;28;8820;-68
2023/03/08 01:27:51;;;;;;;;;30.50;29.00;;;;;;;;5213575;28;8817;-68
2023/03/08 01:30:23;;;;;;;;;29.60;29.60;;;;;;;;5249334;28;9542;-68
2023/03/08 01:33:12;;;;;;;;;25.60;23.00;;;;;;;;5244393;28;9567;-68
2023/03/08 01:35:43;;;;;;;;;19.00;18.25;;;;;;;;5211979;28;8781;-68
2023/03/08 01:38:14;;;;;;;;;21.60;21.00;;;;;;;;5211999;28;9250;-68
2023/03/08 01:40:45;;;;;;;;;20.00;18.20;;;;;;;;5227728;28;8906;-68
2023/03/08 01:43:23;;;;;;;;;23.20;23.20;;;;;;;;5246182;28;8785;-68
2023/03/08 01:46:14;;;;;;;;;32.60;30.40;;;;;;;;5228342;28;8785;-68
2023/03/08 01:48:47;;;;;;;;;23.40;23.40;;;;;;;;5211508;28;8898;-68
2023/03/08 01:51:24;;;;;;;;;19.60;18.40;;;;;;;;5211914;28;8757;-68
2023/03/08 01:53:56;;;;;;;;;13.80;13.80;;;;;;;;5242288;28;8801;-68
2023/03/08 01:56:28;;;;;;;;;32.00;30.80;;;;;;;;5232433;28;8775;-68
2023/03/08 01:59:00;;;;;;;;;21.60;21.40;;;;;;;;5232487;28;8810;-68
2023/03/08 02:01:32;;;;;;;;;18.20;18.00;;;;;;;;5232499;28;8830;-68
2023/03/08 02:04:22;;;;;;;;;19.80;19.20;;;;;;;;5249506;28;9510;-68
2023/03/08 02:07:11;;;;;;;;;20.80;19.20;;;;;;;;5265092;28;8798;-68
2023/03/08 02:09:44;;;;;;;;;26.60;26.40;;;;;;;;5211968;28;8777;-69
2023/03/08 02:12:16;;;;;;;;;18.80;18.20;;;;;;;;5249056;28;8848;-69
2023/03/08 02:14:47;;;;;;;;;17.60;16.00;;;;;;;;5266792;28;8789;-69
2023/03/08 02:17:18;;;;;;;;;22.00;21.80;;;;;;;;5249069;28;8786;-68
2023/03/08 02:20:08;;;;;;;;;20.80;17.20;;;;;;;;5249040;28;8774;-68
2023/03/08 02:22:40;;;;;;;;;21.80;21.80;;;;;;;;5266901;28;8897;-67
2023/03/08 02:25:19;;;;;;;;;23.00;22.20;;;;;;;;5242250;28;8813;-69
2023/03/08 02:27:51;;;;;;;;;19.00;18.40;;;;;;;;5221286;28;8822;-68
2023/03/08 02:30:29;;;;;;;;;21.60;18.40;;;;;;;;5232185;28;9484;-69
2023/03/08 02:33:00;;;;;;;;;22.20;21.20;;;;;;;;5248903;28;8828;-69
2023/03/08 02:35:32;;;;;;;;;21.60;21.60;;;;;;;;5249367;28;8791;-68
2023/03/08 02:38:03;;;;;;;;;39.00;38.20;;;;;;;;5266820;28;8790;-68
2023/03/08 02:40:36;;;;;;;;;18.20;18.20;;;;;;;;5231893;28;8840;-68
2023/03/08 02:43:07;;;;;;;;;44.60;41.60;;;;;;;;5248238;28;8798;-68
2023/03/08 02:45:38;;;;;;;;;17.60;17.60;;;;;;;;5248593;28;8770;-68
2023/03/08 02:48:09;;;;;;;;;29.20;28.00;;;;;;;;5233328;28;8813;-68
2023/03/08 02:50:40;;;;;;;;;25.60;24.60;;;;;;;;5227972;28;8812;-68
2023/03/08 02:53:12;;;;;;;;;18.40;18.20;;;;;;;;5231346;28;8776;-68
2023/03/08 02:55:43;;;;;;;;;8.60;7.00;;;;;;;;5249781;28;8982;-68
2023/03/08 02:58:15;;;;;;;;;13.20;13.20;;;;;;;;5231712;28;8777;-69
2023/03/08 03:00:47;;;;;;;;;17.20;16.00;;;;;;;;5214972;28;8777;-68
2023/03/08 03:03:18;;;;;;;;;20.40;19.20;;;;;;;;5215032;28;8789;-68
2023/03/08 03:05:49;;;;;;;;;21.25;21.25;;;;;;;;5231327;28;8804;-68
2023/03/08 03:08:28;;;;;;;;;29.20;29.20;;;;;;;;5251966;28;11417;-68
2023/03/08 03:11:18;;;;;;;;;32.60;32.60;;;;;;;;5270342;28;8778;-68
2023/03/08 03:13:56;;;;;;;;;34.60;34.60;;;;;;;;5235325;28;8795;-68
2023/03/08 03:16:29;;;;;;;;;34.60;34.60;;;;;;;;5234977;28;8798;-68
2023/03/08 03:19:00;;;;;;;;;37.80;35.80;;;;;;;;5251959;28;8952;-68
2023/03/08 03:21:31;;;;;;;;;27.00;25.50;;;;;;;;5263234;28;8915;-68
2023/03/08 03:24:02;;;;;;;;;32.20;31.00;;;;;;;;5214760;28;8836;-68
2023/03/08 03:26:42;;;;;;;;;25.60;25.60;;;;;;;;5216830;28;8816;-68
2023/03/08 03:29:13;;;;;;;;;90.75;65.00;;;;;;;;5235184;28;8786;-68
2023/03/08 03:31:47;;;;;;;;;25.60;24.20;;;;;;;;5251451;28;8798;-68
2023/03/08 03:34:19;;;;;;;;;19.60;19.20;;;;;;;;5228386;28;8831;-68
2023/03/08 03:36:53;;;;;;;;;10.20;10.00;;;;;;;;5214182;28;9510;-68
2023/03/08 03:39:25;;;;;;;;;19.40;19.40;;;;;;;;5213672;28;8804;-68
2023/03/08 03:41:56;;;;;;;;;18.80;18.80;;;;;;;;5230312;28;8788;-68
2023/03/08 03:44:29;;;;;;;;;25.80;25.80;;;;;;;;5230342;28;8797;-69
2023/03/08 03:47:01;;;;;;;;;28.00;27.00;;;;;;;;5219644;28;8852;-69
2023/03/08 03:49:33;;;;;;;;;27.80;27.20;;;;;;;;5231230;28;8843;-68
2023/03/08 03:52:04;;;;;;;;;24.60;24.40;;;;;;;;5230153;28;8804;-69
2023/03/08 03:54:42;;;;;;;;;26.20;24.60;;;;;;;;5230344;28;8850;-68
2023/03/08 03:57:13;;;;;;;;;82.00;64.00;;;;;;;;5230404;28;8791;-68
2023/03/08 03:59:46;;;;;;;;;18.20;18.20;;;;;;;;5230560;28;8793;-68
2023/03/08 04:02:35;;;;;;;;;15.00;15.00;;;;;;;;5228875;28;8782;-69
2023/03/08 04:05:06;;;;;;;;;12.60;12.60;;;;;;;;5249947;28;8774;-69
2023/03/08 04:07:40;;;;;;;;;15.00;13.20;;;;;;;;5215715;28;8853;-69
2023/03/08 04:10:11;;;;;;;;;14.80;13.40;;;;;;;;5193284;28;9521;-69
2023/03/08 04:12:46;;;;;;;;;15.80;15.80;;;;;;;;5209519;28;8801;-69
2023/03/08 04:15:19;;;;;;;;;10.80;10.80;;;;;;;;5192809;28;8826;-69
2023/03/08 04:17:51;;;;;;;;;13.20;13.20;;;;;;;;5196979;28;8832;-68
2023/03/08 04:20:25;;;;;;;;;94.20;71.60;;;;;;;;5230096;28;8788;-68
2023/03/08 04:23:01;;;;;;;;;24.40;24.40;;;;;;;;5209441;28;8830;-68
2023/03/08 04:25:45;;;;;;;;;14.20;13.80;;;;;;;;5191932;28;8827;-69
2023/03/08 04:28:19;;;;;;;;;15.20;13.80;;;;;;;;5225631;28;8821;-69
2023/03/08 04:30:50;;;;;;;;;8.20;8.20;;;;;;;;5209644;28;8770;-68
2023/03/08 04:33:25;;;;;;;;;10.00;10.00;;;;;;;;5208827;28;8779;-68
2023/03/08 04:35:56;;;;;;;;;11.00;11.00;;;;;;;;5225285;28;8867;-71
2023/03/08 04:38:32;;;;;;;;;9.60;9.60;;;;;;;;5193142;28;9564;-67
2023/03/08 04:41:12;;;;;;;;;9.60;9.60;;;;;;;;5225234;28;8867;-67
2023/03/08 04:44:02;;;;;;;;;14.00;11.60;;;;;;;;5225311;28;8790;-67
2023/03/08 04:46:39;;;;;;;;;14.20;14.20;;;;;;;;5211798;28;8821;-68
2023/03/08 04:49:11;;;;;;;;;23.80;23.60;;;;;;;;5224883;28;9027;-67
2023/03/08 04:51:47;;;;;;;;;21.20;21.00;;;;;;;;5225045;28;8794;-68
2023/03/08 04:54:18;;;;;;;;;24.00;24.00;;;;;;;;5209101;28;8897;-69
2023/03/08 04:56:54;;;;;;;;;18.80;18.60;;;;;;;;5222471;28;11273;-70
2023/03/08 04:59:28;;;;;;;;;19.00;19.00;;;;;;;;5208376;28;8801;-69
2023/03/08 05:02:02;;;;;;;;;25.00;24.00;;;;;;;;5225340;28;8781;-71
2023/03/08 05:04:36;;;;;;;;;24.00;22.00;;;;;;;;5224964;28;8782;-70
2023/03/08 05:07:07;;;;;;;;;24.80;23.80;;;;;;;;5224814;28;8849;-71
2023/03/08 05:09:40;;;;;;;;;39.80;37.40;;;;;;;;5236457;28;8782;-67
2023/03/08 05:12:11;;;;;;;;;37.20;36.20;;;;;;;;5198739;28;8807;-68
2023/03/08 05:14:52;;;;;;;;;41.20;34.40;;;;;;;;5228321;28;9595;-72
2023/03/08 05:17:23;;;;;;;;;30.00;30.00;;;;;;;;5191799;28;8855;-68
2023/03/08 05:19:55;;;;;;;;;27.40;26.60;;;;;;;;5228866;28;8809;-68
2023/03/08 05:22:34;;;;;;;;;27.00;25.20;;;;;;;;5199482;28;8830;-69
2023/03/08 05:25:05;;;;;;;;;28.40;26.60;;;;;;;;5218429;28;8837;-68
2023/03/08 05:27:37;;;;;;;;;27.00;26.20;;;;;;;;5222865;28;8829;-66
2023/03/08 05:30:10;;;;;;;;;39.40;37.00;;;;;;;;5203389;28;8788;-70
2023/03/08 05:32:41;;;;;;;;;22.80;22.80;;;;;;;;5195831;28;8943;-66
2023/03/08 05:35:30;;;;;;;;;28.20;26.80;;;;;;;;5219482;28;8806;-67
2023/03/08 05:38:20;;;;;;;;;37.20;36.40;;;;;;;;5213122;28;8906;-67
2023/03/08 05:40:52;;;;;;;;;60.40;52.20;;;;;;;;5225758;28;8810;-67
2023/03/08 05:43:24;;;;;;;;;13.80;13.80;;;;;;;;5205087;28;8939;-68
2023/03/08 05:46:15;;;;;;;;;29.40;27.40;;;;;;;;5239021;28;8806;-68
2023/03/08 05:49:06;;;;;;;;;24.80;24.80;;;;;;;;5237478;28;9001;-68
2023/03/08 05:51:39;;;;;;;;;28.40;26.60;;;;;;;;5201918;28;8816;-69
2023/03/08 05:54:10;;;;;;;;;25.50;24.75;;;;;;;;5206310;28;8809;-69
2023/03/08 05:56:42;;;;;;;;;28.80;27.60;;;;;;;;5205347;28;10351;-69
2023/03/08 05:59:32;;;;;;;;;32.80;31.40;;;;;;;;5215770;28;8823;-68
2023/03/08 06:02:07;;;;;;;;;43.60;43.00;;;;;;;;5225821;28;9652;-68
2023/03/08 06:04:46;;;;;;;;;25.40;24.60;;;;;;;;5222568;28;8813;-68
2023/03/08 06:07:20;;;;;;;;;30.80;30.80;;;;;;;;5216942;28;8937;-68
2023/03/08 06:09:56;;;;;;;;;29.80;29.80;;;;;;;;5222960;28;8827;-67
2023/03/08 06:12:28;;;;;;;;;29.80;28.80;;;;;;;;5215988;28;8803;-69
2023/03/08 06:15:04;;;;;;;;;28.00;27.60;;;;;;;;5228937;28;8798;-68
2023/03/08 06:17:40;;;;;;;;;23.60;22.60;;;;;;;;5211494;28;8945;-68
2023/03/08 06:20:15;;;;;;;;;22.60;22.60;;;;;;;;5201877;28;8820;-68
2023/03/08 06:22:52;;;;;;;;;108.80;77.20;;;;;;;;5197632;28;9555;-68
2023/03/08 06:25:23;;;;;;;;;41.80;41.40;;;;;;;;5200994;28;8828;-68
2023/03/08 06:27:54;;;;;;;;;30.60;30.40;;;;;;;;5209918;28;8821;-68
2023/03/08 06:30:48;;;;;;;;;42.60;41.60;;;;;;;;5215198;28;8960;-68
2023/03/08 06:33:21;;;;;;;;;47.60;43.80;;;;;;;;5193123;28;8960;-68
2023/03/08 06:36:06;;;;;;;;;35.60;35.60;;;;;;;;5227167;28;8809;-68
2023/03/08 06:38:39;;;;;;;;;40.80;40.00;;;;;;;;5229547;28;8809;-68
2023/03/08 06:41:11;;;;;;;;;39.80;39.80;;;;;;;;5235057;28;8828;-70
2023/03/08 06:43:42;;;;;;;;;51.20;46.00;;;;;;;;5209193;28;8822;-69
2023/03/08 06:46:32;;;;;;;;;48.20;44.80;;;;;;;;5217567;28;8821;-69
2023/03/08 06:49:21;;;;;;;;;47.40;44.60;;;;;;;;5222759;28;8852;-67
2023/03/08 06:51:52;;;;;;;;;45.80;42.40;;;;;;;;5225199;28;8923;-71
2023/03/08 06:54:41;;;;;;;;;46.40;44.00;;;;;;;;5223789;28;8794;-70
2023/03/08 06:57:12;;;;;;;;;57.20;49.80;;;;;;;;5201857;28;8793;-69
2023/03/08 06:59:43;;;;;;;;;47.50;44.25;;;;;;;;5206695;28;9528;-69
2023/03/08 07:02:14;;;;;;;;;58.25;47.50;;;;;;;;5245740;28;8961;-67
2023/03/08 07:04:45;;;;;;;;;35.00;34.60;;;;;;;;5233285;28;8786;-69
2023/03/08 07:07:16;;;;;;;;;26.20;25.20;;;;;;;;5228953;28;8809;-70
2023/03/08 07:09:47;;;;;;;;;35.00;33.75;;;;;;;;5233452;28;8801;-68
2023/03/08 07:12:18;;;;;;;;;33.00;30.75;;;;;;;;5224792;28;11548;-68
2023/03/08 07:14:50;;;;;;;;;26.40;26.20;;;;;;;;5227527;28;8793;-70
2023/03/08 07:17:21;;;;;;;;;26.40;25.80;;;;;;;;5242910;28;8842;-69
2023/03/08 07:19:52;;;;;;;;;42.50;41.00;;;;;;;;5227918;28;8797;-70
2023/03/08 07:22:43;;;;;;;;;42.20;37.40;;;;;;;;5213683;28;8951;-69
2023/03/08 07:25:15;;;;;;;;;46.80;42.40;;;;;;;;5238657;28;8911;-68
2023/03/08 07:27:46;;;;;;;;;38.40;33.60;;;;;;;;5228047;28;8849;-69
2023/03/08 07:30:17;;;;;;;;;37.40;36.40;;;;;;;;5226106;28;8804;-69
2023/03/08 07:32:48;;;;;;;;;25.80;25.80;;;;;;;;5208117;28;9599;-68
2023/03/08 07:35:19;;;;;;;;;26.60;25.40;;;;;;;;5225652;28;8836;-68
2023/03/08 07:37:51;;;;;;;;;27.00;26.50;;;;;;;;5212005;28;8798;-67
2023/03/08 07:40:22;;;;;;;;;30.00;29.60;;;;;;;;5233691;28;11573;-69
2023/03/08 07:42:54;;;;;;;;;28.25;26.50;;;;;;;;5224597;28;8822;-69
2023/03/08 07:45:48;;;;;;;;;30.80;30.00;;;;;;;;5228786;28;11519;-70
2023/03/08 07:48:19;;;;;;;;;34.25;33.50;;;;;;;;5237764;28;8852;-70
2023/03/08 07:50:50;;;;;;;;;15.80;15.60;;;;;;;;5224501;28;11497;-70
2023/03/08 07:53:21;;;;;;;;;22.20;22.20;;;;;;;;5224395;28;8829;-71
2023/03/08 07:56:10;;;;;;;;;29.00;27.20;;;;;;;;5203742;28;8929;-73
2023/03/08 07:58:41;;;;;;;;;26.80;24.00;;;;;;;;5217279;28;8820;-72
2023/03/08 08:01:13;;;;;;;;;47.00;43.80;;;;;;;;5205705;28;8847;-71
2023/03/08 08:03:44;;;;;;;;;44.40;40.40;;;;;;;;5203913;28;9515;-69
2023/03/08 08:06:39;;;;;;;;;56.80;49.40;;;;;;;;5222874;28;8842;-73
2023/03/08 08:09:11;;;;;;;;;51.60;45.80;;;;;;;;5224349;28;8801;-72
2023/03/08 08:11:42;;;;;;;;;77.40;61.80;;;;;;;;5225652;28;9594;-69
2023/03/08 08:14:13;;;;;;;;;62.50;50.50;;;;;;;;5225485;28;8814;-70
2023/03/08 08:17:02;;;;;;;;;40.00;38.80;;;;;;;;5224836;28;11513;-70
2023/03/08 08:19:33;;;;;;;;;44.75;41.00;;;;;;;;5225435;28;8856;-70
2023/03/08 08:22:05;;;;;;;;;32.25;32.00;;;;;;;;5225066;28;11636;-70
2023/03/08 08:24:36;;;;;;;;;27.20;27.00;;;;;;;;5229715;28;8835;-70
2023/03/08 08:27:07;;;;;;;;;37.00;37.00;;;;;;;;5243754;28;8830;-70
2023/03/08 08:29:38;;;;;;;;;35.75;35.50;;;;;;;;5225940;28;8848;-72
2023/03/08 08:32:09;;;;;;;;;37.75;34.00;;;;;;;;5243636;28;8798;-71
2023/03/08 08:34:39;;;;;;;;;31.75;30.50;;;;;;;;5234012;28;12360;-71
2023/03/08 08:37:10;;;;;;;;;39.00;38.25;;;;;;;;5202394;28;8819;-70
2023/03/08 08:39:41;;;;;;;;;34.20;32.80;;;;;;;;5210949;28;11521;-72
2023/03/08 08:42:12;;;;;;;;;23.50;23.50;;;;;;;;5221469;28;8878;-73
2023/03/08 08:44:43;;;;;;;;;23.75;23.75;;;;;;;;5223567;28;11553;-73
2023/03/08 08:47:14;;;;;;;;;20.75;20.75;;;;;;;;5222871;28;9560;-73
2023/03/08 08:50:03;;;;;;;;;29.20;29.20;;;;;;;;5241954;28;10956;-73
2023/03/08 08:52:34;;;;;;;;;41.60;39.80;;;;;;;;5233538;28;8807;-75
2023/03/08 08:55:05;;;;;;;;;36.50;34.75;;;;;;;;5206176;28;8799;-72
2023/03/08 08:57:37;;;;;;;;;27.25;27.00;;;;;;;;5208702;28;10065;-71
2023/03/08 09:00:26;;;;;;;;;31.40;28.00;;;;;;;;5241820;28;8783;-73
2023/03/08 09:02:58;;;;;;;;;30.50;30.50;;;;;;;;5245591;28;9498;-72
2023/03/08 09:05:29;;;;;;;;;26.40;25.60;;;;;;;;5235792;28;9045;-72
2023/03/08 09:08:18;;;;;;;;;30.20;30.20;;;;;;;;5225984;28;8810;-70
2023/03/08 09:10:49;;;;;;;;;32.00;31.25;;;;;;;;5229736;28;8794;-72
2023/03/08 09:13:20;;;;;;;;;68.00;56.25;;;;;;;;5224653;28;8809;-72
2023/03/08 09:15:51;;;;;;;;;34.50;33.00;;;;;;;;5236582;28;8807;-72
2023/03/08 09:18:22;;;;;;;;;59.50;47.75;;;;;;;;5236796;28;11675;-70
2023/03/08 09:20:52;;;;;;;;;36.00;34.25;;;;;;;;5225784;28;8793;-70
2023/03/08 09:23:24;;;;;;;;;33.00;28.00;;;;;;;;5220367;28;9695;-70
2023/03/08 09:25:56;;;;;;;;;25.20;24.40;;;;;;;;5227386;28;11473;-70
2023/03/08 09:28:27;;;;;;;;;27.00;27.00;;;;;;;;5207097;28;8812;-70
2023/03/08 09:31:01;;;;;;;;;22.80;22.80;;;;;;;;5246030;28;8832;-70
2023/03/08 09:33:51;;;;;;;;;26.60;26.60;;;;;;;;5231372;28;8797;-70
2023/03/08 09:36:40;;;;;;;;;32.00;32.00;;;;;;;;5246556;28;8761;-70
2023/03/08 09:39:12;;;;;;;;;28.20;25.80;;;;;;;;5228184;28;8809;-70
2023/03/08 09:41:43;;;;;;;;;28.20;26.00;;;;;;;;5228273;28;8809;-71
2023/03/08 09:44:20;;;;;;;;;55.75;46.75;;;;;;;;5245934;28;8765;-72
2023/03/08 09:46:57;;;;;;;;;46.60;41.40;;;;;;;;5246562;28;11460;-70
2023/03/08 09:49:30;;;;;;;;;39.00;36.00;;;;;;;;5228746;28;8777;-71
2023/03/08 09:52:19;;;;;;;;;26.60;22.40;;;;;;;;5214287;28;8850;-70
2023/03/08 09:54:51;;;;;;;;;23.25;22.00;;;;;;;;5227861;28;8789;-70
2023/03/08 09:57:24;;;;;;;;;30.60;29.80;;;;;;;;5246416;28;9080;-70
2023/03/08 10:00:21;;;;;;;;;25.00;23.80;;;;;;;;5214135;28;8761;-70
2023/03/08 10:03:10;;;;;;;;;19.20;17.80;;;;;;;;5227145;28;8809;-70
2023/03/08 10:05:45;;;;;;;;;38.60;37.20;;;;;;;;5259744;28;8918;-70
2023/03/08 10:08:17;;;;;;;;;19.60;19.20;;;;;;;;5235982;28;8839;-68
2023/03/08 10:10:51;;;;;;;;;34.80;31.60;;;;;;;;5229035;28;8789;-68
2023/03/08 10:13:29;;;;;;;;;29.20;29.00;;;;;;;;5245769;28;8796;-69
2023/03/08 10:16:39;;;;;;;;;18.20;15.20;;;;;;;;5212968;28;8811;-69
2023/03/08 10:19:24;;;;;;;;;19.00;17.60;;;;;;;;5162535;28;8844;-70
2023/03/08 10:21:55;;;;;;;;;49.60;44.00;;;;;;;;5133547;28;8825;-69
2023/03/08 10:24:47;;;;;;;;;15.00;15.00;;;;;;;;5187974;28;9575;-74
2023/03/08 10:27:23;;;;;;;;;14.60;14.60;;;;;;;;5216722;28;8804;-71
2023/03/08 10:29:55;;;;;;;;;12.80;11.60;;;;;;;;5211462;28;9634;-72
2023/03/08 10:32:27;;;;;;;;;26.00;26.00;;;;;;;;5261060;28;8926;-70
2023/03/08 10:35:02;;;;;;;;;33.20;32.80;;;;;;;;5221350;28;8872;-70
2023/03/08 10:37:51;;;;;;;;;86.80;66.40;;;;;;;;5245859;28;8811;-69
2023/03/08 10:40:22;;;;;;;;;32.20;30.60;;;;;;;;5226691;28;9499;-69
2023/03/08 10:43:02;;;;;;;;;28.20;28.20;;;;;;;;5234145;28;8830;-69
2023/03/08 10:45:33;;;;;;;;;27.40;26.20;;;;;;;;5190078;28;8783;-69
2023/03/08 10:48:04;;;;;;;;;20.25;19.25;;;;;;;;5224816;28;8806;-69
2023/03/08 10:50:36;;;;;;;;;54.60;47.00;;;;;;;;5207147;28;8795;-68
2023/03/08 10:53:09;;;;;;;;;9.20;9.00;;;;;;;;5206912;28;8794;-68
2023/03/08 10:55:44;;;;;;;;;28.40;27.80;;;;;;;;5207212;28;8813;-69
2023/03/08 10:58:36;;;;;;;;;19.80;19.80;;;;;;;;5224911;28;8790;-68
2023/03/08 11:01:27;;;;;;;;;14.00;14.00;;;;;;;;5224525;28;8802;-73
2023/03/08 11:03:59;;;;;;;;;12.80;12.80;;;;;;;;5205747;28;8782;-67
2023/03/08 11:06:30;;;;;;;;;11.20;11.20;;;;;;;;5233361;28;8872;-68
2023/03/08 11:09:03;;;;;;;;;10.00;10.00;;;;;;;;5226511;28;9734;-71
2023/03/08 11:11:41;;;;;;;;;15.20;15.20;;;;;;;;5207045;28;8806;-68
2023/03/08 11:14:12;;;;;;;;;13.80;13.40;;;;;;;;5193428;28;8802;-69
2023/03/08 11:16:58;;;;;;;;;19.60;19.40;;;;;;;;5210668;28;8895;-68
2023/03/08 11:19:41;;;;;;;;;19.80;19.80;;;;;;;;5210527;28;8794;-68
2023/03/08 11:22:39;;;;;;;;;61.00;51.80;;;;;;;;5210044;28;8779;-68
2023/03/08 11:25:13;;;;;;;;;61.60;48.60;;;;;;;;5210269;28;8807;-68
2023/03/08 11:27:47;;;;;;;;;19.20;19.20;;;;;;;;5235236;28;8839;-68
2023/03/08 11:30:42;;;;;;;;;14.20;13.80;;;;;;;;5230781;28;8935;-68
2023/03/08 11:33:31;;;;;;;;;13.60;13.60;;;;;;;;5207563;28;8808;-68
2023/03/08 11:36:08;;;;;;;;;18.80;18.40;;;;;;;;5230460;28;8881;-68
2023/03/08 11:38:40;;;;;;;;;39.20;37.00;;;;;;;;5248662;28;8796;-68
2023/03/08 11:41:29;;;;;;;;;34.00;29.80;;;;;;;;5248293;28;8788;-68
2023/03/08 11:44:09;;;;;;;;;25.00;25.00;;;;;;;;5214374;28;8777;-68
2023/03/08 11:46:40;;;;;;;;;29.40;27.00;;;;;;;;5230451;28;9578;-68
2023/03/08 11:49:17;;;;;;;;;35.75;35.50;;;;;;;;5229075;28;8809;-69
2023/03/08 11:52:03;;;;;;;;;31.20;30.20;;;;;;;;5230252;28;8911;-68
2023/03/08 11:55:04;;;;;;;;;41.80;39.60;;;;;;;;5248086;28;8813;-68
2023/03/08 11:57:37;;;;;;;;;47.80;44.00;;;;;;;;5248273;28;9529;-68
2023/03/08 12:00:16;;;;;;;;;65.00;53.00;;;;;;;;5228035;28;8905;-70
2023/03/08 12:02:52;;;;;;;;;55.40;46.00;;;;;;;;5196173;28;8800;-68
2023/03/08 12:05:32;;;;;;;;;48.40;44.20;;;;;;;;5226393;28;8885;-70
2023/03/08 12:08:22;;;;;;;;;42.00;38.20;;;;;;;;5191436;28;8832;-71
2023/03/08 12:11:11;;;;;;;;;25.80;25.00;;;;;;;;5227091;28;8786;-68
2023/03/08 12:13:52;;;;;;;;;37.00;35.00;;;;;;;;5227218;28;8771;-68
2023/03/08 12:16:23;;;;;;;;;64.20;53.60;;;;;;;;5209181;28;8803;-69
2023/03/08 12:18:57;;;;;;;;;33.50;32.25;;;;;;;;5226752;28;8775;-68
2023/03/08 12:21:45;;;;;;;;;31.60;30.60;;;;;;;;5220122;28;8878;-68
2023/03/08 12:24:33;;;;;;;;;19.60;19.20;;;;;;;;5243690;28;8844;-68
2023/03/08 12:27:07;;;;;;;;;18.20;17.80;;;;;;;;5229228;28;8855;-68
2023/03/08 12:29:58;;;;;;;;;23.60;22.60;;;;;;;;5247655;28;8801;-68
2023/03/08 12:32:30;;;;;;;;;13.20;13.20;;;;;;;;5206760;28;9518;-68
2023/03/08 12:35:26;;;;;;;;;16.00;16.00;;;;;;;;5246937;28;9504;-68
2023/03/08 12:38:04;;;;;;;;;47.00;41.80;;;;;;;;5240616;28;8795;-68
2023/03/08 12:40:38;;;;;;;;;32.40;31.00;;;;;;;;5205659;28;8804;-69
2023/03/08 12:43:10;;;;;;;;;20.20;19.60;;;;;;;;5223068;28;8803;-69
2023/03/08 12:45:43;;;;;;;;;73.60;57.00;;;;;;;;5228907;28;8808;-68
2023/03/08 12:48:43;;;;;;;;;20.00;19.80;;;;;;;;5229138;28;8913;-68
2023/03/08 12:51:32;;;;;;;;;14.60;13.80;;;;;;;;5247414;28;8827;-68
2023/03/08 12:54:04;;;;;;;;;9.00;9.00;;;;;;;;5246941;28;8908;-67
2023/03/08 12:56:34;;;;;;;;;31.00;31.00;;;;;;;;5228938;28;8916;-68
2023/03/08 12:59:08;;;;;;;;;52.25;46.00;;;;;;;;5247192;28;8904;-68
2023/03/08 13:01:41;;;;;;;;;21.00;20.60;;;;;;;;5247014;28;8780;-68
2023/03/08 13:04:31;;;;;;;;;18.80;18.40;;;;;;;;5246501;28;8877;-69
2023/03/08 13:07:08;;;;;;;;;22.00;21.20;;;;;;;;5241949;28;8882;-68
2023/03/08 13:09:42;;;;;;;;;14.80;14.80;;;;;;;;5246706;28;8749;-68
2023/03/08 13:12:22;;;;;;;;;15.00;15.00;;;;;;;;5246739;28;8802;-68
2023/03/08 13:15:12;;;;;;;;;14.00;13.60;;;;;;;;5228237;28;8799;-68
2023/03/08 13:17:49;;;;;;;;;20.80;19.80;;;;;;;;5212569;28;8788;-68
2023/03/08 13:20:23;;;;;;;;;13.20;13.20;;;;;;;;5246438;28;9484;-67
2023/03/08 13:23:19;;;;;;;;;16.40;16.40;;;;;;;;5228406;28;8801;-67
2023/03/08 13:26:12;;;;;;;;;19.60;19.00;;;;;;;;5246628;28;8797;-68
2023/03/08 13:28:43;;;;;;;;;18.60;18.20;;;;;;;;5246363;28;8836;-68
2023/03/08 13:31:22;;;;;;;;;24.20;24.20;;;;;;;;5190545;28;8976;-67
2023/03/08 13:33:53;;;;;;;;;184.25;129.50;;;;;;;;5243062;28;8992;-67
2023/03/08 13:36:26;;;;;;;;;50.80;44.00;;;;;;;;5228337;28;8777;-67
2023/03/08 13:39:07;;;;;;;;;50.40;44.40;;;;;;;;5228220;28;8895;-68
2023/03/08 13:41:39;;;;;;;;;33.40;33.00;;;;;;;;5211553;28;8776;-67
2023/03/08 13:44:17;;;;;;;;;45.40;42.20;;;;;;;;5227798;28;8926;-67
2023/03/08 13:47:01;;;;;;;;;50.40;43.80;;;;;;;;5228459;28;8956;-67
2023/03/08 13:49:35;;;;;;;;;68.60;53.80;;;;;;;;5245894;28;8800;-67
2023/03/08 13:52:14;;;;;;;;;68.00;58.20;;;;;;;;5245648;28;8800;-70
2023/03/08 13:54:48;;;;;;;;;50.40;42.00;;;;;;;;5228443;28;8780;-67
2023/03/08 13:57:23;;;;;;;;;32.20;31.00;;;;;;;;5246335;28;8781;-67
2023/03/08 13:59:56;;;;;;;;;35.40;33.00;;;;;;;;5228131;28;8784;-67
2023/03/08 14:02:28;;;;;;;;;32.40;31.80;;;;;;;;5245854;28;9530;-67
2023/03/08 14:04:59;;;;;;;;;39.80;37.40;;;;;;;;5245592;28;8793;-67
2023/03/08 14:07:30;;;;;;;;;29.25;29.25;;;;;;;;5246330;28;8817;-66
2023/03/08 14:10:26;;;;;;;;;40.40;39.00;;;;;;;;5246125;28;9663;-67
2023/03/08 14:12:57;;;;;;;;;42.00;41.20;;;;;;;;5227862;28;9550;-69
2023/03/08 14:15:30;;;;;;;;;49.60;43.20;;;;;;;;5247127;28;8847;-69
2023/03/08 14:18:36;;;;;;;;;46.00;44.40;;;;;;;;5257162;28;8792;-68
2023/03/08 14:21:14;;;;;;;;;42.80;41.80;;;;;;;;5245815;28;8791;-67
2023/03/08 14:23:47;;;;;;;;;38.00;36.60;;;;;;;;5231744;28;8832;-69
2023/03/08 14:26:39;;;;;;;;;45.40;43.60;;;;;;;;5213400;28;8840;-68
2023/03/08 14:29:24;;;;;;;;;51.80;46.80;;;;;;;;5236592;28;8790;-68
2023/03/08 14:32:01;;;;;;;;;54.00;43.60;;;;;;;;5224805;28;8785;-67
2023/03/08 14:34:34;;;;;;;;;45.20;42.60;;;;;;;;5208615;28;8760;-68
2023/03/08 14:37:22;;;;;;;;;41.00;39.80;;;;;;;;5223597;28;8794;-68
2023/03/08 14:39:55;;;;;;;;;48.60;46.00;;;;;;;;5225107;28;8781;-67
2023/03/08 14:42:29;;;;;;;;;62.00;52.40;;;;;;;;5227786;28;8791;-68
2023/03/08 14:45:02;;;;;;;;;52.40;48.60;;;;;;;;5224739;28;8789;-68
2023/03/08 14:47:34;;;;;;;;;61.00;51.80;;;;;;;;5223968;28;9575;-69
2023/03/08 14:50:08;;;;;;;;;50.80;47.20;;;;;;;;5243848;28;8831;-68
2023/03/08 14:52:43;;;;;;;;;70.40;57.80;;;;;;;;5228325;28;8774;-68
2023/03/08 14:55:20;;;;;;;;;75.60;63.40;;;;;;;;5228535;28;8765;-68
2023/03/08 14:57:53;;;;;;;;;74.20;59.20;;;;;;;;5210327;28;8854;-67
2023/03/08 15:00:26;;;;;;;;;65.00;56.00;;;;;;;;5226834;28;8782;-67
2023/03/08 15:02:57;;;;;;;;;66.40;54.60;;;;;;;;5228151;28;8877;-69
2023/03/08 15:05:28;;;;;;;;;64.40;53.80;;;;;;;;5226564;28;8777;-68
2023/03/08 15:08:18;;;;;;;;;36.20;34.80;;;;;;;;5228248;28;8822;-67
2023/03/08 15:10:49;;;;;;;;;42.80;38.80;;;;;;;;5228210;28;8804;-67
2023/03/08 15:13:21;;;;;;;;;51.00;45.00;;;;;;;;5226841;28;8815;-67
2023/03/08 15:15:52;;;;;;;;;43.80;43.80;;;;;;;;5226721;28;8802;-67
2023/03/08 15:18:22;;;;;;;;;38.00;38.00;;;;;;;;5226738;28;8821;-67
2023/03/08 15:20:53;;;;;;;;;40.50;39.00;;;;;;;;5228568;28;11536;-67